sensor_id;sensor_type;location;lat;lon;timestamp;pressure;altitude;pressure_sealevel;temperature;humidity
61318;BME280;47201;40.428;-8.436;2023-09-08T00:00:34;100551.84;;;21.67;100.00
61318;BME280;47201;40.428;-8.436;2023-09-08T00:02:34;100547.72;;;21.62;100.00
61318;BME280;47201;40.428;-8.436;2023-09-08T00:04:35;100556.63;;;21.61;100.00
61318;BME280;47201;40.428;-8.436;2023-09-08T00:06:35;100552.00;;;21.64;100.00
61318;BME280;47201;40.428;-8.436;2023-09-08T00:08:36;100544.97;;;21.63;100.00
61318;BME280;47201;40.428;-8.436;2023-09-08T00:10:37;100549.50;;;21.61;100.00
61318;BME280;47201;40.428;-8.436;2023-09-08T00:12:38;100547.63;;;21.63;100.00
61318;BME280;47201;40.428;-8.436;2023-09-08T00:14:39;100539.97;;;21.57;100.00
61318;BME280;47201;40.428;-8.436;2023-09-08T00:16:39;100535.75;;;21.51;100.00
61318;BME280;47201;40.428;-8.436;2023-09-08T00:18:43;100527.94;;;21.48;100.00
61318;BME280;47201;40.428;-8.436;2023-09-08T00:20:43;100531.59;;;21.46;100.00
61318;BME280;47201;40.428;-8.436;2023-09-08T00:22:44;100527.00;;;21.49;100.00
61318;BME280;47201;40.428;-8.436;2023-09-08T00:24:44;100522.56;;;21.50;100.00
61318;BME280;47201;40.428;-8.436;2023-09-08T00:26:45;100524.16;;;21.35;100.00
61318;BME280;47201;40.428;-8.436;2023-09-08T00:28:46;100519.47;;;21.22;100.00
61318;BME280;47201;40.428;-8.436;2023-09-08T00:30:47;100521.41;;;21.19;100.00
61318;BME280;47201;40.428;-8.436;2023-09-08T00:32:48;100519.06;;;21.13;100.00
61318;BME280;47201;40.428;-8.436;2023-09-08T00:34:48;100516.75;;;21.05;100.00
61318;BME280;47201;40.428;-8.436;2023-09-08T00:36:49;100511.03;;;20.95;100.00
61318;BME280;47201;40.428;-8.436;2023-09-08T00:38:49;100522.75;;;20.91;100.00
61318;BME280;47201;40.428;-8.436;2023-09-08T00:40:50;100512.19;;;20.89;100.00
61318;BME280;47201;40.428;-8.436;2023-09-08T00:42:51;100507.88;;;20.87;100.00
61318;BME280;47201;40.428;-8.436;2023-09-08T00:44:51;100503.50;;;20.86;100.00
61318;BME280;47201;40.428;-8.436;2023-09-08T00:46:52;100503.50;;;20.86;100.00
61318;BME280;47201;40.428;-8.436;2023-09-08T00:48:54;100505.22;;;20.87;100.00
61318;BME280;47201;40.428;-8.436;2023-09-08T00:50:56;100500.72;;;20.89;100.00
61318;BME280;47201;40.428;-8.436;2023-09-08T00:52:57;100502.28;;;20.93;100.00
61318;BME280;47201;40.428;-8.436;2023-09-08T00:54:59;100498.75;;;20.92;100.00
61318;BME280;47201;40.428;-8.436;2023-09-08T00:57:01;100504.72;;;20.98;100.00
61318;BME280;47201;40.428;-8.436;2023-09-08T00:59:04;100502.00;;;20.99;100.00
61318;BME280;47201;40.428;-8.436;2023-09-08T01:01:06;100499.56;;;20.95;100.00
61318;BME280;47201;40.428;-8.436;2023-09-08T01:03:06;100498.84;;;20.91;100.00
61318;BME280;47201;40.428;-8.436;2023-09-08T01:05:07;100500.72;;;20.89;100.00
61318;BME280;47201;40.428;-8.436;2023-09-08T01:07:08;100498.34;;;20.83;100.00
61318;BME280;47201;40.428;-8.436;2023-09-08T01:09:09;100495.78;;;20.81;100.00
61318;BME280;47201;40.428;-8.436;2023-09-08T01:11:11;100490.50;;;20.80;100.00
61318;BME280;47201;40.428;-8.436;2023-09-08T01:13:11;100493.34;;;20.76;100.00
61318;BME280;47201;40.428;-8.436;2023-09-08T01:15:12;100491.44;;;20.79;100.00
61318;BME280;47201;40.428;-8.436;2023-09-08T01:17:13;100486.78;;;20.84;100.00
61318;BME280;47201;40.428;-8.436;2023-09-08T01:19:14;100492.81;;;20.87;100.00
61318;BME280;47201;40.428;-8.436;2023-09-08T01:24:20;100481.47;;;20.84;100.00
61318;BME280;47201;40.428;-8.436;2023-09-08T01:26:27;100482.41;;;20.83;100.00
61318;BME280;47201;40.428;-8.436;2023-09-08T01:28:31;100474.66;;;20.78;100.00
61318;BME280;47201;40.428;-8.436;2023-09-08T01:30:33;100475.66;;;20.75;100.00
61318;BME280;47201;40.428;-8.436;2023-09-08T01:32:35;100473.19;;;20.71;100.00
61318;BME280;47201;40.428;-8.436;2023-09-08T01:34:37;100469.97;;;20.64;100.00
61318;BME280;47201;40.428;-8.436;2023-09-08T01:36:40;100466.59;;;20.60;100.00
61318;BME280;47201;40.428;-8.436;2023-09-08T01:38:40;100469.53;;;20.54;100.00
61318;BME280;47201;40.428;-8.436;2023-09-08T01:40:41;100460.00;;;20.50;100.00
61318;BME280;47201;40.428;-8.436;2023-09-08T01:42:42;100464.59;;;20.47;100.00
61318;BME280;47201;40.428;-8.436;2023-09-08T01:44:42;100462.09;;;20.43;100.00
61318;BME280;47201;40.428;-8.436;2023-09-08T01:46:44;100459.63;;;20.39;100.00
61318;BME280;47201;40.428;-8.436;2023-09-08T01:48:45;100457.06;;;20.37;100.00
61318;BME280;47201;40.428;-8.436;2023-09-08T01:50:47;100456.19;;;20.37;100.00
61318;BME280;47201;40.428;-8.436;2023-09-08T01:52:48;100452.59;;;20.38;100.00
61318;BME280;47201;40.428;-8.436;2023-09-08T01:54:49;100454.25;;;20.40;100.00
61318;BME280;47201;40.428;-8.436;2023-09-08T01:56:49;100442.56;;;20.44;100.00
61318;BME280;47201;40.428;-8.436;2023-09-08T01:58:52;100447.09;;;20.42;100.00
61318;BME280;47201;40.428;-8.436;2023-09-08T02:00:53;100439.41;;;20.36;100.00
61318;BME280;47201;40.428;-8.436;2023-09-08T02:02:54;100439.84;;;20.27;100.00
61318;BME280;47201;40.428;-8.436;2023-09-08T02:04:54;100446.34;;;20.20;100.00
61318;BME280;47201;40.428;-8.436;2023-09-08T02:06:55;100444.06;;;20.12;100.00
61318;BME280;47201;40.428;-8.436;2023-09-08T02:08:56;100439.09;;;20.04;100.00
61318;BME280;47201;40.428;-8.436;2023-09-08T02:10:56;100435.78;;;19.99;100.00
61318;BME280;47201;40.428;-8.436;2023-09-08T02:12:57;100433.28;;;19.96;100.00
61318;BME280;47201;40.428;-8.436;2023-09-08T02:14:58;100432.22;;;20.00;100.00
61318;BME280;47201;40.428;-8.436;2023-09-08T02:17:00;100428.69;;;20.00;100.00
61318;BME280;47201;40.428;-8.436;2023-09-08T02:19:00;100422.66;;;19.96;100.00
61318;BME280;47201;40.428;-8.436;2023-09-08T02:21:01;100422.09;;;19.89;100.00
61318;BME280;47201;40.428;-8.436;2023-09-08T02:23:06;100416.91;;;19.86;100.00
61318;BME280;47201;40.428;-8.436;2023-09-08T02:25:08;100416.72;;;19.91;100.00
61318;BME280;47201;40.428;-8.436;2023-09-08T02:27:08;100411.28;;;19.94;100.00
61318;BME280;47201;40.428;-8.436;2023-09-08T02:29:09;100413.06;;;19.93;100.00
61318;BME280;47201;40.428;-8.436;2023-09-08T02:31:11;100409.56;;;19.93;100.00
61318;BME280;47201;40.428;-8.436;2023-09-08T02:33:12;100402.59;;;19.90;100.00
61318;BME280;47201;40.428;-8.436;2023-09-08T02:35:13;100400.50;;;19.97;100.00
61318;BME280;47201;40.428;-8.436;2023-09-08T02:37:14;100400.94;;;20.07;100.00
61318;BME280;47201;40.428;-8.436;2023-09-08T02:39:14;100394.50;;;20.12;100.00
61318;BME280;47201;40.428;-8.436;2023-09-08T02:41:15;100401.25;;;20.20;100.00
61318;BME280;47201;40.428;-8.436;2023-09-08T02:43:16;100399.47;;;20.20;100.00
61318;BME280;47201;40.428;-8.436;2023-09-08T02:45:16;100395.00;;;20.21;100.00
61318;BME280;47201;40.428;-8.436;2023-09-08T02:47:17;100393.16;;;20.23;100.00
61318;BME280;47201;40.428;-8.436;2023-09-08T02:49:18;100385.31;;;20.20;100.00
61318;BME280;47201;40.428;-8.436;2023-09-08T02:51:19;100385.78;;;20.10;100.00
61318;BME280;47201;40.428;-8.436;2023-09-08T02:53:19;100384.97;;;20.08;100.00
61318;BME280;47201;40.428;-8.436;2023-09-08T02:55:20;100375.41;;;20.04;100.00
61318;BME280;47201;40.428;-8.436;2023-09-08T02:57:21;100372.03;;;20.01;100.00
61318;BME280;47201;40.428;-8.436;2023-09-08T02:59:22;100373.22;;;19.95;100.00
61318;BME280;47201;40.428;-8.436;2023-09-08T03:01:22;100371.63;;;19.91;100.00
61318;BME280;47201;40.428;-8.436;2023-09-08T03:03:23;100372.50;;;19.91;100.00
61318;BME280;47201;40.428;-8.436;2023-09-08T03:05:24;100369.88;;;19.90;100.00
61318;BME280;47201;40.428;-8.436;2023-09-08T03:07:25;100370.97;;;19.86;100.00
61318;BME280;47201;40.428;-8.436;2023-09-08T03:09:25;100373.63;;;19.86;100.00
61318;BME280;47201;40.428;-8.436;2023-09-08T03:11:26;100378.09;;;19.84;100.00
61318;BME280;47201;40.428;-8.436;2023-09-08T03:13:27;100369.97;;;19.88;100.00
61318;BME280;47201;40.428;-8.436;2023-09-08T03:15:29;100372.75;;;19.85;100.00
61318;BME280;47201;40.428;-8.436;2023-09-08T03:17:33;100368.41;;;19.82;100.00
61318;BME280;47201;40.428;-8.436;2023-09-08T03:19:34;100371.28;;;19.78;100.00
61318;BME280;47201;40.428;-8.436;2023-09-08T03:21:35;100370.50;;;19.76;100.00
61318;BME280;47201;40.428;-8.436;2023-09-08T03:23:40;100370.56;;;19.74;100.00
61318;BME280;47201;40.428;-8.436;2023-09-08T03:25:41;100376.94;;;19.70;100.00
61318;BME280;47201;40.428;-8.436;2023-09-08T03:27:42;100381.66;;;19.63;100.00
61318;BME280;47201;40.428;-8.436;2023-09-08T03:29:43;100372.03;;;19.61;100.00
61318;BME280;47201;40.428;-8.436;2023-09-08T03:31:43;100366.00;;;19.57;100.00
61318;BME280;47201;40.428;-8.436;2023-09-08T03:33:44;100365.28;;;19.54;100.00
61318;BME280;47201;40.428;-8.436;2023-09-08T03:35:46;100369.78;;;19.52;100.00
61318;BME280;47201;40.428;-8.436;2023-09-08T03:37:46;100368.16;;;19.49;100.00
61318;BME280;47201;40.428;-8.436;2023-09-08T03:39:47;100367.28;;;19.48;100.00
61318;BME280;47201;40.428;-8.436;2023-09-08T03:41:48;100369.41;;;19.40;100.00
61318;BME280;47201;40.428;-8.436;2023-09-08T03:43:48;100361.88;;;19.31;100.00
61318;BME280;47201;40.428;-8.436;2023-09-08T03:45:49;100363.94;;;19.24;100.00
61318;BME280;47201;40.428;-8.436;2023-09-08T03:47:50;100366.91;;;19.16;100.00
61318;BME280;47201;40.428;-8.436;2023-09-08T03:49:51;100368.91;;;19.11;100.00
61318;BME280;47201;40.428;-8.436;2023-09-08T03:51:52;100370.13;;;19.02;100.00
61318;BME280;47201;40.428;-8.436;2023-09-08T03:53:53;100365.03;;;18.98;100.00
61318;BME280;47201;40.428;-8.436;2023-09-08T03:55:54;100374.84;;;18.96;100.00
61318;BME280;47201;40.428;-8.436;2023-09-08T03:57:54;100369.66;;;18.93;100.00
61318;BME280;47201;40.428;-8.436;2023-09-08T03:59:55;100375.06;;;18.90;100.00
61318;BME280;47201;40.428;-8.436;2023-09-08T04:01:56;100379.66;;;18.84;100.00
61318;BME280;47201;40.428;-8.436;2023-09-08T04:03:56;100370.22;;;18.79;100.00
61318;BME280;47201;40.428;-8.436;2023-09-08T04:05:58;100372.13;;;18.75;100.00
61318;BME280;47201;40.428;-8.436;2023-09-08T04:07:58;100368.75;;;18.71;100.00
61318;BME280;47201;40.428;-8.436;2023-09-08T04:09:59;100372.25;;;18.72;100.00
61318;BME280;47201;40.428;-8.436;2023-09-08T04:12:03;100366.94;;;18.72;100.00
61318;BME280;47201;40.428;-8.436;2023-09-08T04:14:04;100372.31;;;18.70;100.00
61318;BME280;47201;40.428;-8.436;2023-09-08T04:16:05;100372.25;;;18.72;100.00
61318;BME280;47201;40.428;-8.436;2023-09-08T04:18:06;100373.84;;;18.76;100.00
61318;BME280;47201;40.428;-8.436;2023-09-08T04:20:07;100366.84;;;18.75;100.00
61318;BME280;47201;40.428;-8.436;2023-09-08T04:22:08;100365.75;;;18.79;100.00
61318;BME280;47201;40.428;-8.436;2023-09-08T04:24:09;100363.56;;;18.91;100.00
61318;BME280;47201;40.428;-8.436;2023-09-08T04:26:11;100357.84;;;19.01;100.00
61318;BME280;47201;40.428;-8.436;2023-09-08T04:28:11;100358.28;;;19.11;100.00
61318;BME280;47201;40.428;-8.436;2023-09-08T04:30:13;100343.97;;;19.15;100.00
61318;BME280;47201;40.428;-8.436;2023-09-08T04:32:13;100349.88;;;19.22;100.00
61318;BME280;47201;40.428;-8.436;2023-09-08T04:34:14;100355.91;;;19.26;100.00
61318;BME280;47201;40.428;-8.436;2023-09-08T04:36:15;100347.97;;;19.26;100.00
61318;BME280;47201;40.428;-8.436;2023-09-08T04:38:16;100346.31;;;19.23;100.00
61318;BME280;47201;40.428;-8.436;2023-09-08T04:40:17;100347.09;;;19.25;100.00
61318;BME280;47201;40.428;-8.436;2023-09-08T04:42:17;100347.03;;;19.27;100.00
61318;BME280;47201;40.428;-8.436;2023-09-08T04:44:18;100346.88;;;19.30;100.00
61318;BME280;47201;40.428;-8.436;2023-09-08T04:46:19;100344.91;;;19.35;100.00
61318;BME280;47201;40.428;-8.436;2023-09-08T04:48:20;100350.22;;;19.35;100.00
61318;BME280;47201;40.428;-8.436;2023-09-08T04:50:21;100344.03;;;19.34;100.00
61318;BME280;47201;40.428;-8.436;2023-09-08T04:52:21;100345.75;;;19.36;100.00
61318;BME280;47201;40.428;-8.436;2023-09-08T04:54:22;100339.75;;;19.32;100.00
61318;BME280;47201;40.428;-8.436;2023-09-08T04:56:27;100338.16;;;19.28;100.00
61318;BME280;47201;40.428;-8.436;2023-09-08T04:58:28;100335.75;;;19.22;100.00
61318;BME280;47201;40.428;-8.436;2023-09-08T05:00:29;100334.97;;;19.20;100.00
61318;BME280;47201;40.428;-8.436;2023-09-08T05:02:30;100338.56;;;19.18;100.00
61318;BME280;47201;40.428;-8.436;2023-09-08T05:04:31;100331.53;;;19.17;100.00
61318;BME280;47201;40.428;-8.436;2023-09-08T05:06:31;100334.19;;;19.17;100.00
61318;BME280;47201;40.428;-8.436;2023-09-08T05:08:32;100352.00;;;19.14;100.00
61318;BME280;47201;40.428;-8.436;2023-09-08T05:10:33;100356.31;;;19.16;100.00
61318;BME280;47201;40.428;-8.436;2023-09-08T05:12:34;100350.34;;;19.11;100.00
61318;BME280;47201;40.428;-8.436;2023-09-08T05:14:35;100357.56;;;19.08;100.00
61318;BME280;47201;40.428;-8.436;2023-09-08T05:16:36;100357.09;;;18.98;100.00
61318;BME280;47201;40.428;-8.436;2023-09-08T05:18:40;100369.66;;;18.93;100.00
61318;BME280;47201;40.428;-8.436;2023-09-08T05:20:41;100371.88;;;18.81;100.00
61318;BME280;47201;40.428;-8.436;2023-09-08T05:22:42;100370.66;;;18.68;100.00
61318;BME280;47201;40.428;-8.436;2023-09-08T05:24:43;100374.47;;;18.61;100.00
61318;BME280;47201;40.428;-8.436;2023-09-08T05:26:43;100389.72;;;18.54;100.00
61318;BME280;47201;40.428;-8.436;2023-09-08T05:28:44;100382.84;;;18.50;100.00
61318;BME280;47201;40.428;-8.436;2023-09-08T05:30:45;100382.88;;;18.48;100.00
61318;BME280;47201;40.428;-8.436;2023-09-08T05:32:45;100389.09;;;18.47;100.00
61318;BME280;47201;40.428;-8.436;2023-09-08T05:34:46;100392.63;;;18.48;100.00
61318;BME280;47201;40.428;-8.436;2023-09-08T05:36:47;100397.75;;;18.52;100.00
61318;BME280;47201;40.428;-8.436;2023-09-08T05:38:47;100403.78;;;18.56;100.00
61318;BME280;47201;40.428;-8.436;2023-09-08T05:40:48;100402.72;;;18.60;100.00
61318;BME280;47201;40.428;-8.436;2023-09-08T05:42:49;100412.28;;;18.64;100.00
61318;BME280;47201;40.428;-8.436;2023-09-08T05:44:50;100412.13;;;18.67;100.00
61318;BME280;47201;40.428;-8.436;2023-09-08T05:46:51;100420.72;;;18.74;100.00
61318;BME280;47201;40.428;-8.436;2023-09-08T05:48:52;100418.72;;;18.79;100.00
61318;BME280;47201;40.428;-8.436;2023-09-08T05:50:53;100426.56;;;18.82;100.00
61318;BME280;47201;40.428;-8.436;2023-09-08T05:52:53;100428.06;;;18.88;100.00
61318;BME280;47201;40.428;-8.436;2023-09-08T05:54:54;100433.22;;;18.93;100.00
61318;BME280;47201;40.428;-8.436;2023-09-08T05:56:55;100430.13;;;19.03;100.00
61318;BME280;47201;40.428;-8.436;2023-09-08T05:58:56;100424.63;;;19.08;100.00
61318;BME280;47201;40.428;-8.436;2023-09-08T06:00:56;100432.09;;;19.21;100.00
61318;BME280;47201;40.428;-8.436;2023-09-08T06:02:57;100446.75;;;19.29;100.00
61318;BME280;47201;40.428;-8.436;2023-09-08T06:04:58;100447.47;;;19.33;100.00
61318;BME280;47201;40.428;-8.436;2023-09-08T06:06:58;100444.66;;;19.36;100.00
61318;BME280;47201;40.428;-8.436;2023-09-08T06:09:00;100449.66;;;19.44;100.00
61318;BME280;47201;40.428;-8.436;2023-09-08T06:11:01;100455.63;;;19.49;100.00
61318;BME280;47201;40.428;-8.436;2023-09-08T06:13:02;100459.72;;;19.56;100.00
61318;BME280;47201;40.428;-8.436;2023-09-08T06:15:04;100454.31;;;19.59;100.00
61318;BME280;47201;40.428;-8.436;2023-09-08T06:17:06;100456.56;;;19.69;100.00
61318;BME280;47201;40.428;-8.436;2023-09-08T06:19:07;100450.06;;;19.76;100.00
61318;BME280;47201;40.428;-8.436;2023-09-08T06:21:08;100457.66;;;19.84;100.00
61318;BME280;47201;40.428;-8.436;2023-09-08T06:23:09;100459.31;;;19.88;100.00
61318;BME280;47201;40.428;-8.436;2023-09-08T06:25:10;100463.44;;;19.93;100.00
61318;BME280;47201;40.428;-8.436;2023-09-08T06:27:11;100475.47;;;20.02;100.00
61318;BME280;47201;40.428;-8.436;2023-09-08T06:29:14;100471.25;;;20.17;100.00
61318;BME280;47201;40.428;-8.436;2023-09-08T06:31:14;100465.97;;;20.36;100.00
61318;BME280;47201;40.428;-8.436;2023-09-08T06:33:16;100473.84;;;20.57;100.00
61318;BME280;47201;40.428;-8.436;2023-09-08T06:35:17;100469.22;;;20.81;100.00
61318;BME280;47201;40.428;-8.436;2023-09-08T06:37:18;100475.69;;;20.93;100.00
61318;BME280;47201;40.428;-8.436;2023-09-08T06:39:19;100477.72;;;20.88;100.00
61318;BME280;47201;40.428;-8.436;2023-09-08T06:41:20;100476.88;;;20.87;100.00
61318;BME280;47201;40.428;-8.436;2023-09-08T06:43:22;100475.25;;;20.85;100.00
61318;BME280;47201;40.428;-8.436;2023-09-08T06:45:30;100468.03;;;20.87;100.00
61318;BME280;47201;40.428;-8.436;2023-09-08T06:47:31;100473.44;;;20.85;100.00
61318;BME280;47201;40.428;-8.436;2023-09-08T06:49:32;100478.59;;;20.88;100.00
61318;BME280;47201;40.428;-8.436;2023-09-08T06:51:32;100485.78;;;20.86;100.00
61318;BME280;47201;40.428;-8.436;2023-09-08T06:53:33;100477.22;;;20.80;100.00
61318;BME280;47201;40.428;-8.436;2023-09-08T06:55:34;100480.06;;;20.76;100.00
61318;BME280;47201;40.428;-8.436;2023-09-08T06:57:35;100493.47;;;20.73;100.00
61318;BME280;47201;40.428;-8.436;2023-09-08T06:59:35;100483.81;;;20.71;100.00
61318;BME280;47201;40.428;-8.436;2023-09-08T07:01:36;100488.22;;;20.72;100.00
61318;BME280;47201;40.428;-8.436;2023-09-08T07:03:37;100486.34;;;20.74;100.00
61318;BME280;47201;40.428;-8.436;2023-09-08T07:05:39;100481.00;;;20.75;100.00
61318;BME280;47201;40.428;-8.436;2023-09-08T07:07:40;100484.41;;;20.77;100.00
61318;BME280;47201;40.428;-8.436;2023-09-08T07:09:42;100496.81;;;20.96;100.00
61318;BME280;47201;40.428;-8.436;2023-09-08T07:11:42;100489.34;;;21.04;100.00
61318;BME280;47201;40.428;-8.436;2023-09-08T07:13:43;100495.31;;;21.27;100.00
61318;BME280;47201;40.428;-8.436;2023-09-08T07:15:44;100500.00;;;21.39;100.00
61318;BME280;47201;40.428;-8.436;2023-09-08T07:17:45;100489.81;;;21.84;100.00
61318;BME280;47201;40.428;-8.436;2023-09-08T07:19:45;100503.88;;;23.02;100.00
61318;BME280;47201;40.428;-8.436;2023-09-08T07:21:46;100518.00;;;24.11;96.83
61318;BME280;47201;40.428;-8.436;2023-09-08T07:23:47;100517.69;;;25.28;91.13
61318;BME280;47201;40.428;-8.436;2023-09-08T07:25:49;100522.03;;;26.49;85.23
61318;BME280;47201;40.428;-8.436;2023-09-08T07:27:51;100529.34;;;27.45;80.63
61318;BME280;47201;40.428;-8.436;2023-09-08T07:29:55;100529.91;;;28.43;78.28
61318;BME280;47201;40.428;-8.436;2023-09-08T07:31:55;100544.94;;;29.23;76.02
61318;BME280;47201;40.428;-8.436;2023-09-08T07:33:56;100550.47;;;30.08;74.97
61318;BME280;47201;40.428;-8.436;2023-09-08T07:35:57;100547.88;;;30.59;75.28
61318;BME280;47201;40.428;-8.436;2023-09-08T07:37:59;100551.28;;;31.11;75.61
61318;BME280;47201;40.428;-8.436;2023-09-08T07:40:00;100551.16;;;31.42;76.91
61318;BME280;47201;40.428;-8.436;2023-09-08T07:42:01;100548.53;;;32.00;76.54
61318;BME280;47201;40.428;-8.436;2023-09-08T07:44:02;100548.78;;;32.16;77.39
61318;BME280;47201;40.428;-8.436;2023-09-08T07:46:03;100541.88;;;32.41;77.80
61318;BME280;47201;40.428;-8.436;2023-09-08T07:48:04;100545.47;;;32.70;78.46
61318;BME280;47201;40.428;-8.436;2023-09-08T07:50:19;100550.50;;;33.65;76.96
61318;BME280;47201;40.428;-8.436;2023-09-08T07:52:20;100537.94;;;34.77;77.58
61318;BME280;47201;40.428;-8.436;2023-09-08T07:54:21;100540.97;;;35.58;77.93
61318;BME280;47201;40.428;-8.436;2023-09-08T07:56:22;100543.44;;;36.18;77.72
61318;BME280;47201;40.428;-8.436;2023-09-08T07:58:22;100549.63;;;36.51;78.06
61318;BME280;47201;40.428;-8.436;2023-09-08T08:00:23;100536.88;;;36.92;78.22
61318;BME280;47201;40.428;-8.436;2023-09-08T08:02:24;100537.22;;;37.43;77.13
61318;BME280;47201;40.428;-8.436;2023-09-08T08:04:24;100535.28;;;36.66;78.76
61318;BME280;47201;40.428;-8.436;2023-09-08T08:06:25;100529.22;;;36.56;79.36
61318;BME280;47201;40.428;-8.436;2023-09-08T08:08:27;100525.56;;;37.03;79.17
61318;BME280;47201;40.428;-8.436;2023-09-08T08:10:28;100529.91;;;37.59;78.03
61318;BME280;47201;40.428;-8.436;2023-09-08T08:12:28;100546.78;;;37.31;78.00
61318;BME280;47201;40.428;-8.436;2023-09-08T08:14:29;100544.09;;;38.07;77.94
61318;BME280;47201;40.428;-8.436;2023-09-08T08:16:30;100530.47;;;38.37;77.41
61318;BME280;47201;40.428;-8.436;2023-09-08T08:18:30;100537.47;;;38.77;77.50
61318;BME280;47201;40.428;-8.436;2023-09-08T08:20:31;100529.19;;;39.07;77.48
61318;BME280;47201;40.428;-8.436;2023-09-08T08:22:38;100523.09;;;38.68;78.20
61318;BME280;47201;40.428;-8.436;2023-09-08T08:24:39;100526.38;;;39.00;77.88
61318;BME280;47201;40.428;-8.436;2023-09-08T08:26:39;100529.69;;;38.95;76.66
61318;BME280;47201;40.428;-8.436;2023-09-08T08:28:40;100521.28;;;38.60;77.11
61318;BME280;47201;40.428;-8.436;2023-09-08T08:30:41;100521.81;;;38.34;77.32
61318;BME280;47201;40.428;-8.436;2023-09-08T08:32:41;100515.34;;;37.67;77.61
61318;BME280;47201;40.428;-8.436;2023-09-08T08:34:42;100522.63;;;37.51;78.40
61318;BME280;47201;40.428;-8.436;2023-09-08T08:36:43;100518.66;;;37.77;78.04
61318;BME280;47201;40.428;-8.436;2023-09-08T08:38:43;100518.31;;;37.95;77.69
61318;BME280;47201;40.428;-8.436;2023-09-08T08:40:45;100515.25;;;37.75;78.16
61318;BME280;47201;40.428;-8.436;2023-09-08T08:42:46;100507.09;;;37.37;78.13
61318;BME280;47201;40.428;-8.436;2023-09-08T08:44:47;100505.03;;;37.15;78.20
61318;BME280;47201;40.428;-8.436;2023-09-08T08:46:47;100505.78;;;35.98;79.64
61318;BME280;47201;40.428;-8.436;2023-09-08T08:48:49;100496.06;;;36.04;80.06
61318;BME280;47201;40.428;-8.436;2023-09-08T08:50:54;100508.38;;;37.03;78.64
61318;BME280;47201;40.428;-8.436;2023-09-08T08:52:56;100500.88;;;37.05;78.30
61318;BME280;47201;40.428;-8.436;2023-09-08T08:54:57;100497.78;;;35.88;79.60
61318;BME280;47201;40.428;-8.436;2023-09-08T08:56:59;100491.09;;;34.24;81.64
61318;BME280;47201;40.428;-8.436;2023-09-08T08:59:01;100484.06;;;32.70;83.34
61318;BME280;47201;40.428;-8.436;2023-09-08T09:01:02;100482.91;;;31.79;84.26
61318;BME280;47201;40.428;-8.436;2023-09-08T09:03:04;100480.78;;;31.54;84.59
61318;BME280;47201;40.428;-8.436;2023-09-08T09:05:11;100481.63;;;32.11;83.82
61318;BME280;47201;40.428;-8.436;2023-09-08T09:07:13;100477.19;;;32.30;83.37
61318;BME280;47201;40.428;-8.436;2023-09-08T09:09:14;100488.56;;;32.34;83.45
61318;BME280;47201;40.428;-8.436;2023-09-08T09:11:15;100487.00;;;32.59;82.66
61318;BME280;47201;40.428;-8.436;2023-09-08T09:13:16;100479.38;;;32.07;83.83
61318;BME280;47201;40.428;-8.436;2023-09-08T09:15:28;100476.91;;;32.23;82.87
61318;BME280;47201;40.428;-8.436;2023-09-08T09:17:28;100474.13;;;31.28;84.84
61318;BME280;47201;40.428;-8.436;2023-09-08T09:19:29;100468.00;;;30.36;85.65
61318;BME280;47201;40.428;-8.436;2023-09-08T09:21:46;100479.41;;;29.67;86.41
61318;BME280;47201;40.428;-8.436;2023-09-08T09:23:48;100477.09;;;29.08;87.12
61318;BME280;47201;40.428;-8.436;2023-09-08T09:25:48;100474.16;;;28.56;87.44
61318;BME280;47201;40.428;-8.436;2023-09-08T09:27:54;100473.94;;;28.48;86.50
61318;BME280;47201;40.428;-8.436;2023-09-08T09:29:55;100479.34;;;28.37;86.63
61318;BME280;47201;40.428;-8.436;2023-09-08T09:32:06;100478.31;;;28.60;85.49
61318;BME280;47201;40.428;-8.436;2023-09-08T09:34:08;100478.00;;;29.30;85.26
61318;BME280;47201;40.428;-8.436;2023-09-08T09:36:09;100472.06;;;30.31;84.11
61318;BME280;47201;40.428;-8.436;2023-09-08T09:38:10;100468.44;;;31.12;83.17
61318;BME280;47201;40.428;-8.436;2023-09-08T09:40:11;100474.50;;;32.20;82.51
61318;BME280;47201;40.428;-8.436;2023-09-08T09:42:12;100477.09;;;32.02;83.21
61318;BME280;47201;40.428;-8.436;2023-09-08T09:44:13;100486.34;;;31.42;83.79
61318;BME280;47201;40.428;-8.436;2023-09-08T09:46:15;100491.00;;;30.81;84.63
61318;BME280;47201;40.428;-8.436;2023-09-08T09:48:19;100481.34;;;30.38;85.00
61318;BME280;47201;40.428;-8.436;2023-09-08T09:50:30;100490.69;;;30.34;85.31
61318;BME280;47201;40.428;-8.436;2023-09-08T09:52:31;100491.78;;;30.52;84.39
61318;BME280;47201;40.428;-8.436;2023-09-08T09:54:32;100498.53;;;31.56;83.30
61318;BME280;47201;40.428;-8.436;2023-09-08T09:56:33;100498.25;;;32.26;82.48
61318;BME280;47201;40.428;-8.436;2023-09-08T09:58:35;100499.41;;;32.52;82.19
61318;BME280;47201;40.428;-8.436;2023-09-08T10:00:38;100497.16;;;32.47;82.06
61318;BME280;47201;40.428;-8.436;2023-09-08T10:02:41;100505.28;;;32.09;82.83
61318;BME280;47201;40.428;-8.436;2023-09-08T10:04:42;100508.59;;;31.93;83.13
61318;BME280;47201;40.428;-8.436;2023-09-08T10:06:43;100511.03;;;31.77;83.42
61318;BME280;47201;40.428;-8.436;2023-09-08T10:08:45;100511.94;;;32.81;81.93
61318;BME280;47201;40.428;-8.436;2023-09-08T10:10:48;100513.09;;;34.21;79.78
61318;BME280;47201;40.428;-8.436;2023-09-08T10:12:54;100533.13;;;35.31;79.06
61318;BME280;47201;40.428;-8.436;2023-09-08T10:14:56;100528.38;;;35.24;79.26
61318;BME280;47201;40.428;-8.436;2023-09-08T10:16:59;100516.66;;;34.56;80.36
61318;BME280;47201;40.428;-8.436;2023-09-08T10:19:03;100515.13;;;33.93;81.55
61318;BME280;47201;40.428;-8.436;2023-09-08T10:21:07;100514.41;;;32.92;82.55
61318;BME280;47201;40.428;-8.436;2023-09-08T10:25:36;100504.53;;;31.79;83.80